createdAt,value
2023-07-09T00:00:17.459Z,12.90
2023-07-09T00:02:44.594Z,10.10
2023-07-09T00:05:16.314Z,13.00
2023-07-09T00:07:44.334Z,8.82
2023-07-09T00:10:16.387Z,8.73
2023-07-09T00:12:42.934Z,9.45
2023-07-09T00:15:11.995Z,9.15
2023-07-09T00:17:39.781Z,7.95
2023-07-09T00:20:12.642Z,10.70
2023-07-09T00:25:07.443Z,8.60
2023-07-09T00:27:34.047Z,10.93
2023-07-09T00:30:01.053Z,9.02
2023-07-09T00:32:29.485Z,12.43
2023-07-09T00:34:57.138Z,8.48
2023-07-09T00:37:29.143Z,10.57
2023-07-09T00:39:55.993Z,9.13
2023-07-09T00:42:25.009Z,9.57
2023-07-09T00:44:53.156Z,7.88
2023-07-09T00:47:27.712Z,7.22
2023-07-09T00:50:05.000Z,8.80
2023-07-09T00:52:50.824Z,9.50
2023-07-09T00:55:23.514Z,10.30
2023-07-09T00:57:57.578Z,10.95
2023-07-09T01:00:30.222Z,9.88
2023-07-09T01:02:57.113Z,10.43
2023-07-09T01:05:23.766Z,10.45
2023-07-09T01:07:51.180Z,7.53
2023-07-09T01:10:19.697Z,11.68
2023-07-09T01:12:47.894Z,8.25
2023-07-09T01:15:16.584Z,8.93
2023-07-09T01:17:45.825Z,10.32
2023-07-09T01:20:20.859Z,10.82
2023-07-09T01:22:50.200Z,9.07
2023-07-09T01:25:17.529Z,11.77
2023-07-09T01:27:47.738Z,6.93
2023-07-09T01:30:41.034Z,8.75
2023-07-09T01:33:09.262Z,8.38
2023-07-09T01:35:38.091Z,10.30
2023-07-09T01:38:07.961Z,9.35
2023-07-09T01:40:37.144Z,9.48
2023-07-09T01:43:09.041Z,8.88
2023-07-09T01:45:37.870Z,9.50
2023-07-09T01:48:04.815Z,11.35
2023-07-09T01:50:31.500Z,7.28
2023-07-09T01:52:58.852Z,10.43
2023-07-09T01:55:25.483Z,12.57
2023-07-09T01:57:53.538Z,7.40
2023-07-09T02:00:20.474Z,9.25
2023-07-09T02:02:48.090Z,11.02
2023-07-09T02:05:17.587Z,9.30
2023-07-09T02:07:44.223Z,6.85
2023-07-09T02:10:12.641Z,10.10
2023-07-09T02:12:39.295Z,9.27
2023-07-09T02:15:07.154Z,10.23
2023-07-09T02:17:33.733Z,10.30
2023-07-09T02:20:00.318Z,7.97
2023-07-09T02:22:27.138Z,8.40
2023-07-09T02:24:56.286Z,10.57
2023-07-09T02:27:25.773Z,10.00
2023-07-09T02:29:52.370Z,8.85
2023-07-09T02:32:22.033Z,9.45
2023-07-09T02:34:50.270Z,8.10
2023-07-09T02:37:20.729Z,9.90
2023-07-09T02:39:47.370Z,6.70
2023-07-09T02:42:15.979Z,27.23
2023-07-09T02:44:43.772Z,11.32
2023-07-09T02:47:11.693Z,7.68
2023-07-09T02:49:39.137Z,10.43
2023-07-09T02:52:06.559Z,10.02
2023-07-09T02:54:33.437Z,9.77
2023-07-09T02:57:00.120Z,8.73
2023-07-09T02:59:28.003Z,10.50
2023-07-09T03:01:54.593Z,9.82
2023-07-09T03:04:24.118Z,11.80
2023-07-09T03:06:50.742Z,9.90
2023-07-09T03:09:17.310Z,7.80
2023-07-09T03:11:43.916Z,8.38
2023-07-09T03:14:10.567Z,10.82
2023-07-09T03:16:37.323Z,10.13
2023-07-09T03:19:05.627Z,7.38
2023-07-09T03:21:33.430Z,11.00
2023-07-09T03:24:00.562Z,10.15
2023-07-09T03:26:27.318Z,9.50
2023-07-09T03:28:54.187Z,11.13
2023-07-09T03:31:21.448Z,11.20
2023-07-09T03:33:52.896Z,9.27
2023-07-09T03:36:21.297Z,10.95
2023-07-09T03:38:49.199Z,8.45
2023-07-09T03:44:12.653Z,9.67
2023-07-09T03:46:39.269Z,9.10
2023-07-09T03:49:05.965Z,8.32
2023-07-09T03:51:32.632Z,11.70
2023-07-09T03:53:59.298Z,9.68
2023-07-09T03:56:26.221Z,10.23
2023-07-09T03:58:53.212Z,11.90
2023-07-09T04:01:19.910Z,10.95
2023-07-09T04:03:47.058Z,13.45
2023-07-09T04:06:13.787Z,11.55
2023-07-09T04:08:40.466Z,9.27
2023-07-09T04:11:07.262Z,9.50
2023-07-09T04:13:34.349Z,12.13
2023-07-09T04:16:01.799Z,7.60
2023-07-09T04:18:28.779Z,10.40
2023-07-09T04:20:55.476Z,8.98
2023-07-09T04:23:22.266Z,8.23
2023-07-09T04:25:49.252Z,8.30
2023-07-09T04:28:16.665Z,11.35
2023-07-09T04:30:50.932Z,8.43
2023-07-09T04:33:24.183Z,7.90
2023-07-09T04:35:51.527Z,8.13
2023-07-09T04:38:18.273Z,10.63
2023-07-09T04:40:45.536Z,9.55
2023-07-09T04:43:12.280Z,9.40
2023-07-09T04:45:39.179Z,9.65
2023-07-09T04:48:06.515Z,8.85
2023-07-09T04:50:33.895Z,7.68
2023-07-09T04:53:01.796Z,8.48
2023-07-09T04:55:28.790Z,8.95
2023-07-09T04:57:55.589Z,7.57
2023-07-09T05:00:22.755Z,12.63
2023-07-09T05:02:49.639Z,10.90
2023-07-09T05:05:17.421Z,7.22
2023-07-09T05:07:44.142Z,10.93
2023-07-09T05:10:11.164Z,7.93
2023-07-09T05:12:49.527Z,9.35
2023-07-09T05:15:16.340Z,7.38
2023-07-09T05:17:43.349Z,10.93
2023-07-09T05:20:10.471Z,10.30
2023-07-09T05:22:37.152Z,9.30
2023-07-09T05:25:04.148Z,10.13
2023-07-09T05:27:30.844Z,9.05
2023-07-09T05:29:57.791Z,12.38
2023-07-09T05:32:24.627Z,10.18
2023-07-09T05:34:51.289Z,11.52
2023-07-09T05:37:17.998Z,10.73
2023-07-09T05:39:44.870Z,12.95
2023-07-09T05:42:11.999Z,12.25
2023-07-09T05:44:38.610Z,7.88
2023-07-09T05:47:05.406Z,8.18
2023-07-09T05:49:32.151Z,10.70
2023-07-09T05:51:59.063Z,8.45
2023-07-09T05:54:26.736Z,9.75
2023-07-09T05:56:53.358Z,9.40
2023-07-09T05:59:20.032Z,8.75
2023-07-09T06:01:46.752Z,8.93
2023-07-09T06:04:15.231Z,10.57
2023-07-09T06:06:43.132Z,9.77
2023-07-09T06:09:10.241Z,9.90
2023-07-09T06:11:37.186Z,7.57
2023-07-09T06:14:04.155Z,8.50
2023-07-09T06:16:31.169Z,9.32
2023-07-09T06:18:57.838Z,9.30
2023-07-09T06:21:24.693Z,9.65
2023-07-09T06:23:51.465Z,12.98
2023-07-09T06:26:18.198Z,8.15
2023-07-09T06:28:45.225Z,8.55
2023-07-09T06:31:11.923Z,8.70
2023-07-09T06:33:38.704Z,8.73
2023-07-09T06:36:06.147Z,11.20
2023-07-09T06:38:33.103Z,9.07
2023-07-09T06:40:59.791Z,9.35
2023-07-09T06:43:27.109Z,6.68
2023-07-09T06:46:02.351Z,7.50
2023-07-09T06:48:30.048Z,8.23
2023-07-09T06:50:58.211Z,7.35
2023-07-09T06:53:26.109Z,8.25
2023-07-09T06:55:56.496Z,7.47
2023-07-09T06:58:26.215Z,9.90
2023-07-09T07:00:53.411Z,9.18
2023-07-09T07:03:20.332Z,8.98
2023-07-09T07:05:51.015Z,9.18
2023-07-09T07:08:20.219Z,10.57
2023-07-09T07:10:49.943Z,7.47
2023-07-09T07:13:16.787Z,6.78
2023-07-09T07:15:49.754Z,6.13
2023-07-09T07:18:16.481Z,8.73
2023-07-09T07:20:44.348Z,7.05
2023-07-09T07:23:10.925Z,7.60
2023-07-09T07:25:37.555Z,8.18
2023-07-09T07:28:04.398Z,7.30
2023-07-09T07:30:31.489Z,7.25
2023-07-09T07:32:58.186Z,9.57
2023-07-09T07:35:24.927Z,7.78
2023-07-09T07:37:51.558Z,8.20
2023-07-09T07:40:18.422Z,7.53
2023-07-09T07:42:45.849Z,6.72
2023-07-09T07:45:12.681Z,6.07
2023-07-09T07:47:40.552Z,6.85
2023-07-09T07:50:08.360Z,10.23
2023-07-09T07:52:38.622Z,6.97
2023-07-09T07:55:08.047Z,8.52
2023-07-09T07:57:35.420Z,11.77
2023-07-09T08:00:03.951Z,7.03
2023-07-09T08:02:33.644Z,6.70
2023-07-09T08:05:02.287Z,8.00
2023-07-09T08:07:29.009Z,8.30
2023-07-09T08:09:55.630Z,5.75
2023-07-09T08:12:22.306Z,7.78
2023-07-09T08:14:48.990Z,8.00
2023-07-09T08:17:15.646Z,7.60
2023-07-09T08:19:51.024Z,8.13
2023-07-09T08:22:18.193Z,6.90
2023-07-09T08:24:44.877Z,8.38
2023-07-09T08:27:11.973Z,6.22
2023-07-09T08:29:38.718Z,7.90
2023-07-09T08:32:06.032Z,8.38
2023-07-09T08:34:32.742Z,9.75
2023-07-09T08:36:59.348Z,7.50
2023-07-09T08:39:26.329Z,7.78
2023-07-09T08:42:11.972Z,7.93
2023-07-09T08:45:08.870Z,11.20
2023-07-09T08:48:04.641Z,7.43
2023-07-09T08:50:51.619Z,8.85
2023-07-09T08:53:23.124Z,7.43
2023-07-09T08:55:52.668Z,13.43
2023-07-09T08:58:26.096Z,6.35
2023-07-09T09:01:24.382Z,7.38
2023-07-09T09:03:55.388Z,6.28
2023-07-09T09:06:27.690Z,8.25
2023-07-09T09:11:58.590Z,12.35
2023-07-09T09:14:37.459Z,7.00
2023-07-09T09:19:49.454Z,10.77
2023-07-09T09:22:22.545Z,7.38
2023-07-09T09:25:04.170Z,7.68
2023-07-09T09:27:30.968Z,7.82
2023-07-09T09:29:57.671Z,7.93
2023-07-09T09:32:27.723Z,9.35
2023-07-09T09:34:55.262Z,8.98
2023-07-09T09:37:29.836Z,8.10
2023-07-09T09:40:12.191Z,11.70
2023-07-09T09:45:17.572Z,9.23
2023-07-09T09:47:46.488Z,7.82
2023-07-09T09:50:22.907Z,6.55
2023-07-09T09:52:50.560Z,5.57
2023-07-09T09:55:24.301Z,7.30
2023-07-09T09:57:53.712Z,6.22
2023-07-09T10:00:24.525Z,6.60
2023-07-09T10:02:51.270Z,12.02
2023-07-09T10:05:26.389Z,7.82
2023-07-09T10:08:21.598Z,6.70
2023-07-09T10:10:48.987Z,10.60
2023-07-09T10:13:29.779Z,7.13
2023-07-09T10:16:11.309Z,6.88
2023-07-09T10:18:50.077Z,6.55
2023-07-09T10:21:33.114Z,8.35
2023-07-09T10:24:44.328Z,7.00
2023-07-09T10:27:23.732Z,6.88
2023-07-09T10:30:21.823Z,4.65
2023-07-09T10:33:10.075Z,8.48
2023-07-09T10:35:54.771Z,5.63
2023-07-09T10:38:52.802Z,7.22
2023-07-09T10:41:27.424Z,7.68
2023-07-09T10:44:06.390Z,6.28
2023-07-09T10:46:39.085Z,5.78
2023-07-09T10:49:07.848Z,7.22
2023-07-09T10:51:40.962Z,5.78
2023-07-09T10:54:32.394Z,6.72
2023-07-09T10:57:12.986Z,5.18
2023-07-09T10:59:43.084Z,6.32
2023-07-09T11:02:34.325Z,7.97
2023-07-09T11:05:03.834Z,7.15
2023-07-09T11:07:41.112Z,7.50
2023-07-09T11:10:37.718Z,8.88
2023-07-09T11:13:12.935Z,8.02
2023-07-09T11:15:49.192Z,9.50
2023-07-09T11:18:25.365Z,7.03
2023-07-09T11:21:17.912Z,5.07
2023-07-09T11:23:48.544Z,6.90
2023-07-09T11:26:25.597Z,5.88
2023-07-09T11:29:05.578Z,5.75
2023-07-09T11:31:39.957Z,5.68
2023-07-09T11:34:10.858Z,5.63
2023-07-09T11:36:57.629Z,5.75
2023-07-09T11:39:43.302Z,5.97
2023-07-09T11:42:27.066Z,6.68
2023-07-09T11:45:12.312Z,4.70
2023-07-09T11:47:55.079Z,5.18
2023-07-09T11:50:26.565Z,6.15
2023-07-09T11:53:11.648Z,7.18
2023-07-09T11:55:47.337Z,5.10
2023-07-09T11:58:19.628Z,5.20
2023-07-09T12:00:49.640Z,9.23
2023-07-09T12:03:26.819Z,6.43
2023-07-09T12:06:05.348Z,5.90
2023-07-09T12:08:40.372Z,7.03
2023-07-09T12:11:19.882Z,6.60
2023-07-09T12:13:46.859Z,6.20
2023-07-09T12:16:47.893Z,6.10
2023-07-09T12:19:17.421Z,7.93
2023-07-09T12:21:46.256Z,7.13
2023-07-09T12:24:26.917Z,7.90
2023-07-09T12:27:01.911Z,4.95
2023-07-09T12:29:35.845Z,5.95
2023-07-09T12:32:14.800Z,6.93
2023-07-09T12:34:41.570Z,11.00
2023-07-09T12:37:15.937Z,6.50
2023-07-09T12:39:43.001Z,5.65
2023-07-09T12:42:18.959Z,6.55
2023-07-09T12:44:50.696Z,9.25
2023-07-09T12:47:19.530Z,8.63
2023-07-09T12:49:49.041Z,8.63
2023-07-09T12:52:21.345Z,7.28
2023-07-09T12:55:03.175Z,7.20
2023-07-09T12:57:31.971Z,7.60
2023-07-09T12:59:59.622Z,9.13
2023-07-09T13:02:31.163Z,7.13
2023-07-09T13:05:07.115Z,7.53
2023-07-09T13:07:38.061Z,7.22
2023-07-09T13:10:17.063Z,7.30
2023-07-09T13:12:51.204Z,8.52
2023-07-09T13:15:25.277Z,7.30
2023-07-09T13:17:58.792Z,7.95
2023-07-09T13:20:25.915Z,7.10
2023-07-09T13:22:52.568Z,10.52
2023-07-09T13:25:25.397Z,6.15
2023-07-09T13:27:59.888Z,5.05
2023-07-09T13:30:26.676Z,5.47
2023-07-09T13:32:53.517Z,5.57
2023-07-09T13:35:21.689Z,6.03
2023-07-09T13:37:48.473Z,6.97
2023-07-09T13:40:17.200Z,5.30
2023-07-09T13:42:45.293Z,7.05
2023-07-09T13:45:25.019Z,5.63
2023-07-09T13:47:54.049Z,7.15
2023-07-09T13:50:22.218Z,7.28
2023-07-09T13:52:49.003Z,7.47
2023-07-09T13:55:24.663Z,7.55
2023-07-09T13:57:52.136Z,6.55
2023-07-09T14:00:19.021Z,7.25
2023-07-09T14:02:46.741Z,7.38
2023-07-09T14:05:15.081Z,6.82
2023-07-09T14:07:43.329Z,7.28
2023-07-09T14:10:18.632Z,5.95
2023-07-09T14:12:48.701Z,5.65
2023-07-09T14:15:21.768Z,6.75
2023-07-09T14:17:49.215Z,6.32
2023-07-09T14:20:18.676Z,7.47
2023-07-09T14:22:46.042Z,6.05
2023-07-09T14:25:20.346Z,6.57
2023-07-09T14:27:47.567Z,6.60
2023-07-09T14:30:19.643Z,12.68
2023-07-09T14:32:48.582Z,7.10
2023-07-09T14:35:21.761Z,9.18
2023-07-09T14:37:50.942Z,12.05
2023-07-09T14:40:19.144Z,8.55
2023-07-09T14:42:46.002Z,11.20
2023-07-09T14:45:29.954Z,12.23
2023-07-09T14:47:56.711Z,8.65
2023-07-09T14:50:25.134Z,9.90
2023-07-09T14:52:51.873Z,6.20
2023-07-09T14:55:21.462Z,7.30
2023-07-09T14:57:50.179Z,6.70
2023-07-09T15:00:21.838Z,8.90
2023-07-09T15:02:52.474Z,8.45
2023-07-09T15:05:23.899Z,7.30
2023-07-09T15:07:51.036Z,7.93
2023-07-09T15:10:30.099Z,8.32
2023-07-09T15:12:57.456Z,7.32
2023-07-09T15:15:32.073Z,9.05
2023-07-09T15:18:02.045Z,7.05
2023-07-09T15:20:31.324Z,6.65
2023-07-09T15:23:00.341Z,10.82
2023-07-09T15:25:30.076Z,9.52
2023-07-09T15:27:57.573Z,11.35
2023-07-09T15:30:27.146Z,11.27
2023-07-09T15:32:58.938Z,10.90
2023-07-09T15:35:34.190Z,12.73
2023-07-09T15:38:02.387Z,10.88
2023-07-09T15:40:30.522Z,13.50
2023-07-09T15:43:04.476Z,15.13
2023-07-09T15:48:23.667Z,12.00
2023-07-09T15:50:53.016Z,14.55
2023-07-09T15:53:22.148Z,12.15
2023-07-09T15:55:50.385Z,14.55
2023-07-09T15:58:22.810Z,11.88
2023-07-09T16:00:50.782Z,13.85
2023-07-09T16:03:22.515Z,12.30
2023-07-09T16:08:17.065Z,11.07
2023-07-09T16:10:44.184Z,12.57
2023-07-09T16:13:23.882Z,11.27
2023-07-09T16:15:51.580Z,13.60
2023-07-09T16:18:19.549Z,11.68
2023-07-09T16:20:47.788Z,10.75
2023-07-09T16:23:20.613Z,11.52
2023-07-09T16:25:50.137Z,10.23
2023-07-09T16:28:20.659Z,12.05
2023-07-09T16:30:49.794Z,11.60
2023-07-09T16:33:16.601Z,9.68
2023-07-09T16:35:43.512Z,10.95
2023-07-09T16:38:13.724Z,9.52
2023-07-09T16:40:41.360Z,10.32
2023-07-09T16:43:22.911Z,10.20
2023-07-09T16:45:49.865Z,8.85
2023-07-09T16:48:22.593Z,11.38
2023-07-09T16:50:54.025Z,8.80
2023-07-09T16:53:22.044Z,11.23
2023-07-09T16:55:49.896Z,9.25
2023-07-09T16:58:25.579Z,10.52
2023-07-09T17:00:52.276Z,12.85
2023-07-09T17:03:19.023Z,8.38
2023-07-09T17:05:45.983Z,12.88
2023-07-09T17:08:12.635Z,9.48
2023-07-09T17:10:43.260Z,11.00
2023-07-09T17:13:22.998Z,10.38
2023-07-09T17:15:50.174Z,9.93
2023-07-09T17:18:19.700Z,9.23
2023-07-09T17:20:47.872Z,9.40
2023-07-09T17:23:14.544Z,12.25
2023-07-09T17:25:41.674Z,9.30
2023-07-09T17:28:24.923Z,8.60
2023-07-09T17:30:52.367Z,10.10
2023-07-09T17:33:22.430Z,9.85
2023-07-09T17:35:52.595Z,12.20
2023-07-09T17:38:24.203Z,7.68
2023-07-09T17:40:51.837Z,10.52
2023-07-09T17:43:24.225Z,8.40
2023-07-09T17:45:55.188Z,9.10
2023-07-09T17:48:31.360Z,9.95
2023-07-09T17:50:58.631Z,8.10
2023-07-09T17:53:29.490Z,7.95
2023-07-09T17:55:58.186Z,10.68
2023-07-09T17:58:28.850Z,8.05
2023-07-09T18:01:03.273Z,6.95
2023-07-09T18:03:30.732Z,11.65
2023-07-09T18:05:58.099Z,8.60
2023-07-09T18:08:24.788Z,7.95
2023-07-09T18:10:52.849Z,9.55
2023-07-09T18:13:24.232Z,9.05
2023-07-09T18:15:59.059Z,10.00
2023-07-09T18:18:28.260Z,8.27
2023-07-09T18:20:54.958Z,11.07
2023-07-09T18:23:23.735Z,9.75
2023-07-09T18:25:51.543Z,8.95
2023-07-09T18:28:28.641Z,6.72
2023-07-09T18:31:11.826Z,8.73
2023-07-09T18:33:47.503Z,12.63
2023-07-09T18:36:16.753Z,11.65
2023-07-09T18:38:43.432Z,9.70
2023-07-09T18:41:17.200Z,9.43
2023-07-09T18:43:45.918Z,10.05
2023-07-09T18:46:13.411Z,7.78
2023-07-09T18:48:40.685Z,9.00
2023-07-09T18:51:12.269Z,10.52
2023-07-09T18:53:45.167Z,9.25
2023-07-09T18:56:11.828Z,12.50
2023-07-09T18:58:39.575Z,10.23
2023-07-09T19:01:19.015Z,7.35
2023-07-09T19:03:47.013Z,12.10
2023-07-09T19:06:13.777Z,11.25
2023-07-09T19:08:41.964Z,12.00
2023-07-09T19:11:09.190Z,10.60
2023-07-09T19:13:35.845Z,10.50
2023-07-09T19:16:03.674Z,9.68
2023-07-09T19:18:37.053Z,11.05
2023-07-09T19:21:04.354Z,10.20
2023-07-09T19:23:31.215Z,11.85
2023-07-09T19:25:58.088Z,12.05
2023-07-09T19:28:24.751Z,13.23
2023-07-09T19:30:54.722Z,10.73
2023-07-09T19:33:41.252Z,13.35
2023-07-09T19:36:26.685Z,12.23
2023-07-09T19:38:55.322Z,12.00
2023-07-09T19:41:23.630Z,10.88
2023-07-09T19:43:50.551Z,10.90
2023-07-09T19:46:22.503Z,9.85
2023-07-09T19:48:49.602Z,11.93
2023-07-09T19:51:18.556Z,13.40
2023-07-09T19:53:45.269Z,12.07
2023-07-09T19:56:11.912Z,13.48
2023-07-09T19:58:38.799Z,12.20
2023-07-09T20:01:13.039Z,14.43
2023-07-09T20:03:41.601Z,12.35
2023-07-09T20:06:10.992Z,11.88
2023-07-09T20:08:38.709Z,15.30
2023-07-09T20:11:10.331Z,13.25
2023-07-09T20:13:38.348Z,14.73
2023-07-09T20:16:05.647Z,14.98
2023-07-09T20:18:32.475Z,15.40
2023-07-09T20:21:02.120Z,18.52
2023-07-09T20:23:30.400Z,13.93
2023-07-09T20:25:59.760Z,17.95
2023-07-09T20:28:29.029Z,14.63
2023-07-09T20:30:57.461Z,19.38
2023-07-09T20:33:25.408Z,14.82
2023-07-09T20:35:52.966Z,16.83
2023-07-09T20:38:28.231Z,15.60
2023-07-09T20:40:58.114Z,14.65
2023-07-09T20:43:28.763Z,18.45
2023-07-09T20:45:56.268Z,15.80
2023-07-09T20:48:24.801Z,16.05
2023-07-09T20:50:52.861Z,12.23
2023-07-09T20:53:20.736Z,16.75
2023-07-09T20:55:48.698Z,17.20
2023-07-09T20:58:18.026Z,17.85
2023-07-09T21:00:46.288Z,17.67
2023-07-09T21:03:25.850Z,16.27
2023-07-09T21:05:53.470Z,17.83
2023-07-09T21:08:27.283Z,19.25
2023-07-09T21:10:54.946Z,17.20
2023-07-09T21:13:25.445Z,17.27
2023-07-09T21:15:55.511Z,19.42
2023-07-09T21:18:24.636Z,20.27
2023-07-09T21:20:51.473Z,22.45
2023-07-09T21:23:21.173Z,18.50
2023-07-09T21:25:48.938Z,23.20
2023-07-09T21:28:17.218Z,22.80
2023-07-09T21:30:45.096Z,16.08
2023-07-09T21:33:17.762Z,15.82
2023-07-09T21:38:23.375Z,15.40
2023-07-09T21:40:54.544Z,18.45
2023-07-09T21:43:21.782Z,19.48
2023-07-09T21:45:54.405Z,16.17
2023-07-09T21:48:28.203Z,13.52
2023-07-09T21:50:55.458Z,15.98
2023-07-09T21:55:58.843Z,14.52
2023-07-09T21:58:25.463Z,18.88
2023-07-09T22:00:56.489Z,14.88
2023-07-09T22:03:23.974Z,13.88
2023-07-09T22:05:51.004Z,16.90
2023-07-09T22:08:19.904Z,13.38
2023-07-09T22:10:48.586Z,13.40
2023-07-09T22:13:17.410Z,15.60
2023-07-09T22:15:44.960Z,15.68
2023-07-09T22:18:17.340Z,15.65
2023-07-09T22:20:44.246Z,16.80
2023-07-09T22:23:18.572Z,18.27
2023-07-09T22:25:45.247Z,13.30
2023-07-09T22:28:14.477Z,16.40
2023-07-09T22:30:41.188Z,16.45
2023-07-09T22:33:08.261Z,16.83
2023-07-09T22:35:38.661Z,15.52
2023-07-09T22:38:17.557Z,18.08
2023-07-09T22:40:44.682Z,17.65
2023-07-09T22:43:11.507Z,15.80
2023-07-09T22:45:39.205Z,17.45
2023-07-09T22:48:06.859Z,17.00
2023-07-09T22:50:37.254Z,16.33
2023-07-09T22:53:10.463Z,12.48
2023-07-09T22:55:40.502Z,14.15
2023-07-09T22:58:09.563Z,14.38
2023-07-09T23:00:52.931Z,17.02
2023-07-09T23:03:23.294Z,18.33
2023-07-09T23:05:50.458Z,15.43
2023-07-09T23:08:24.071Z,16.88
2023-07-09T23:10:56.798Z,15.80
2023-07-09T23:15:53.686Z,13.75
2023-07-09T23:18:24.249Z,15.32
2023-07-09T23:20:51.401Z,15.23
2023-07-09T23:23:19.046Z,15.88
2023-07-09T23:25:48.224Z,15.77
2023-07-09T23:28:16.716Z,17.85
2023-07-09T23:30:44.214Z,14.70
2023-07-09T23:33:30.002Z,16.98
2023-07-09T23:35:57.914Z,16.67
2023-07-09T23:38:29.895Z,17.33
2023-07-09T23:40:59.394Z,16.60
2023-07-09T23:43:29.449Z,13.18
2023-07-09T23:45:56.049Z,17.90
2023-07-09T23:48:30.375Z,17.10
2023-07-09T23:51:01.199Z,19.80
2023-07-09T23:53:31.942Z,15.63
2023-07-09T23:56:01.508Z,17.27
2023-07-09T23:58:33.241Z,16.40
